createdAt,value
2019-02-17T05:00:46.712Z,-5.05
2019-02-17T05:01:39.637Z,-4.95
2019-02-17T05:02:40.360Z,-4.90
2019-02-17T05:03:40.019Z,-4.91
2019-02-17T05:04:40.184Z,-4.90
2019-02-17T05:05:40.428Z,-4.85
2019-02-17T05:06:40.938Z,-4.76
2019-02-17T05:07:41.765Z,-4.87
2019-02-17T05:08:40.969Z,-4.76
2019-02-17T05:09:41.090Z,-4.79
2019-02-17T05:10:41.247Z,-4.88
2019-02-17T05:11:41.434Z,-4.83
2019-02-17T05:12:41.646Z,-4.88
2019-02-17T05:13:41.869Z,-4.81
2019-02-17T05:14:42.038Z,-4.84
2019-02-17T05:15:42.350Z,-4.88
2019-02-17T05:16:42.368Z,-4.83
2019-02-17T05:17:42.497Z,-4.91
2019-02-17T05:18:43.393Z,-4.94
2019-02-17T05:19:42.896Z,-4.95
2019-02-17T05:20:43.096Z,-4.87
2019-02-17T05:21:43.235Z,-5.01
2019-02-17T05:22:43.421Z,-4.99
2019-02-17T05:23:43.555Z,-4.94
2019-02-17T05:24:43.731Z,-4.95
2019-02-17T05:25:43.963Z,-4.91
2019-02-17T05:26:44.040Z,-4.99
2019-02-17T05:27:44.232Z,-4.97
2019-02-17T05:28:45.263Z,-4.93
2019-02-17T05:29:44.622Z,-5.05
2019-02-17T05:30:53.037Z,-4.88
2019-02-17T05:31:47.950Z,-4.94
2019-02-17T05:32:45.172Z,-4.90
2019-02-17T05:33:45.293Z,-4.87
2019-02-17T05:34:45.468Z,-4.97
2019-02-17T05:35:45.681Z,-4.88
2019-02-17T05:36:45.821Z,-4.97
2019-02-17T05:37:45.961Z,-5.03
2019-02-17T05:38:46.198Z,-4.94
2019-02-17T05:39:46.299Z,-4.93
2019-02-17T05:40:46.401Z,-5.12
2019-02-17T05:41:46.597Z,-4.93
2019-02-17T05:42:47.212Z,-4.87
2019-02-17T05:43:47.004Z,-4.99
2019-02-17T05:44:47.212Z,-4.99
2019-02-17T05:45:47.361Z,-4.95
2019-02-17T05:46:47.563Z,-5.06
2019-02-17T05:47:47.818Z,-4.97
2019-02-17T05:48:47.932Z,-5.05
2019-02-17T05:49:48.134Z,-5.09
2019-02-17T05:50:48.367Z,-5.08
2019-02-17T05:51:48.474Z,-5.12
2019-02-17T05:52:48.767Z,-5.08
2019-02-17T05:53:48.936Z,-5.20
2019-02-17T05:54:50.471Z,-5.06
2019-02-17T05:55:50.396Z,-5.20
2019-02-17T05:56:49.592Z,-5.13
2019-02-17T05:57:49.865Z,-5.11
2019-02-17T05:58:49.777Z,-5.06
2019-02-17T05:59:49.964Z,-4.90
2019-02-17T06:00:50.150Z,-4.73
2019-02-17T06:01:50.513Z,-4.67
2019-02-17T06:02:50.617Z,-4.63
2019-02-17T06:03:50.807Z,-4.58
2019-02-17T06:04:50.976Z,-4.44
2019-02-17T06:05:51.323Z,-4.37
2019-02-17T06:06:51.315Z,-4.23
2019-02-17T06:07:51.464Z,-4.27
2019-02-17T06:08:51.751Z,-4.28
2019-02-17T06:09:51.860Z,-4.28
2019-02-17T06:10:51.926Z,-4.38
2019-02-17T06:11:52.256Z,-4.30
2019-02-17T06:12:52.209Z,-4.40
2019-02-17T06:13:52.365Z,-4.44
2019-02-17T06:14:52.449Z,-4.41
2019-02-17T06:15:52.671Z,-4.44
2019-02-17T06:16:52.918Z,-4.49
2019-02-17T06:17:54.192Z,-4.46
2019-02-17T06:18:53.261Z,-4.48
2019-02-17T06:19:53.512Z,-4.54
2019-02-17T06:20:53.662Z,-4.54
2019-02-17T06:21:53.953Z,-4.65
2019-02-17T06:22:54.078Z,-4.54
2019-02-17T06:23:54.495Z,-4.58
2019-02-17T06:24:54.879Z,-4.56
2019-02-17T06:25:54.933Z,-4.54
2019-02-17T06:26:54.981Z,-4.59
2019-02-17T06:27:55.084Z,-4.55
2019-02-17T06:28:55.410Z,-4.56
2019-02-17T06:29:55.576Z,-4.52
2019-02-17T06:30:55.818Z,-4.54
2019-02-17T06:31:55.998Z,-4.56
2019-02-17T06:32:56.221Z,-4.48
2019-02-17T06:33:56.335Z,-4.51
2019-02-17T06:34:56.692Z,-4.54
2019-02-17T06:35:56.704Z,-4.54
2019-02-17T06:36:56.945Z,-4.51
2019-02-17T06:37:57.179Z,-4.48
2019-02-17T06:38:57.357Z,-4.45
2019-02-17T06:39:57.595Z,-4.45
2019-02-17T06:40:57.736Z,-4.40
2019-02-17T06:41:57.921Z,-4.46
2019-02-17T06:42:59.072Z,-4.37
2019-02-17T06:43:58.171Z,-4.37
2019-02-17T06:44:58.435Z,-4.37
2019-02-17T06:45:59.237Z,-4.45
2019-02-17T06:46:58.652Z,-4.46
2019-02-17T06:47:58.968Z,-4.34
2019-02-17T06:48:58.974Z,-4.34
2019-02-17T06:49:59.195Z,-4.34
2019-02-17T06:50:59.475Z,-4.34
2019-02-17T06:51:59.518Z,-4.37
2019-02-17T06:52:59.641Z,-4.31
2019-02-17T06:53:59.918Z,-4.37
2019-02-17T06:55:00.264Z,-4.33
2019-02-17T06:56:00.443Z,-4.38
2019-02-17T06:57:00.647Z,-4.30
2019-02-17T06:58:00.625Z,-4.30
2019-02-17T06:59:01.580Z,-4.20
2019-02-17T07:00:01.095Z,-4.16
2019-02-17T07:01:01.391Z,-4.16
2019-02-17T07:02:01.477Z,-4.07
2019-02-17T07:03:02.205Z,-4.02
2019-02-17T07:04:02.247Z,-3.94
2019-02-17T07:05:02.440Z,-3.88
2019-02-17T07:06:02.207Z,-3.84
2019-02-17T07:07:02.895Z,-3.79
2019-02-17T07:08:03.591Z,-3.72
2019-02-17T07:09:04.774Z,-3.84
2019-02-17T07:10:02.845Z,-3.64
2019-02-17T07:11:03.143Z,-3.74
2019-02-17T07:12:03.340Z,-3.74
2019-02-17T07:13:04.729Z,-3.76
2019-02-17T07:14:03.698Z,-3.88
2019-02-17T07:15:03.976Z,-3.77
2019-02-17T07:16:04.027Z,-3.86
2019-02-17T07:17:04.161Z,-3.70
2019-02-17T07:18:04.322Z,-3.81
2019-02-17T07:19:04.529Z,-3.80
2019-02-17T07:20:05.484Z,-3.79
2019-02-17T07:21:04.952Z,-3.83
2019-02-17T07:22:05.929Z,-3.59
2019-02-17T07:23:05.900Z,-3.58
2019-02-17T07:24:05.495Z,-3.55
2019-02-17T07:25:05.753Z,-3.61
2019-02-17T07:26:05.974Z,-3.57
2019-02-17T07:27:06.869Z,-3.46
2019-02-17T07:28:06.922Z,-3.39
2019-02-17T07:29:07.445Z,-3.33
2019-02-17T07:30:06.736Z,-3.25
2019-02-17T07:31:07.083Z,-3.22
2019-02-17T07:32:07.243Z,-3.12
2019-02-17T07:33:07.304Z,-2.89
2019-02-17T07:34:07.525Z,-2.87
2019-02-17T07:35:07.738Z,-2.76
2019-02-17T07:36:07.898Z,-2.65
2019-02-17T07:37:08.047Z,-2.43
2019-02-17T07:38:08.271Z,-2.37
2019-02-17T07:39:08.391Z,-2.25
2019-02-17T07:40:17.310Z,-2.03
2019-02-17T07:41:09.296Z,-1.86
2019-02-17T07:42:09.692Z,-1.82
2019-02-17T07:43:10.198Z,-1.72
2019-02-17T07:44:09.160Z,-1.39
2019-02-17T07:45:09.396Z,-1.26
2019-02-17T07:46:09.534Z,-0.86
2019-02-17T07:47:10.083Z,-0.50
2019-02-17T07:48:09.873Z,-0.30
2019-02-17T07:49:10.188Z,0.07
2019-02-17T07:50:10.203Z,0.44
2019-02-17T07:51:10.413Z,0.77
2019-02-17T07:52:11.476Z,0.93
2019-02-17T07:53:11.604Z,1.17
2019-02-17T07:54:11.024Z,1.50
2019-02-17T07:55:11.128Z,1.82
2019-02-17T07:56:11.508Z,1.98
2019-02-17T07:57:11.656Z,2.11
2019-02-17T07:58:12.431Z,2.29
2019-02-17T07:59:12.464Z,2.59
2019-02-17T08:00:12.024Z,3.01
2019-02-17T08:01:12.430Z,3.16
2019-02-17T08:02:12.428Z,3.34
2019-02-17T08:03:12.618Z,3.50
2019-02-17T08:04:12.788Z,3.62
2019-02-17T08:05:12.961Z,4.02
2019-02-17T08:06:13.118Z,4.20
2019-02-17T08:07:13.326Z,4.34
2019-02-17T08:08:13.523Z,4.67
2019-02-17T08:09:13.688Z,4.84
2019-02-17T08:10:13.773Z,5.05
2019-02-17T08:11:14.682Z,5.33
2019-02-17T08:12:14.256Z,5.74
2019-02-17T08:13:14.519Z,6.10
2019-02-17T08:14:15.306Z,6.24
2019-02-17T08:15:14.770Z,6.48
2019-02-17T08:16:14.869Z,6.63
2019-02-17T08:17:15.130Z,6.61
2019-02-17T08:18:16.222Z,6.75
2019-02-17T08:19:16.408Z,6.91
2019-02-17T08:20:16.419Z,7.07
2019-02-17T08:21:15.789Z,7.23
2019-02-17T08:22:15.904Z,7.39
2019-02-17T08:23:16.031Z,7.74
2019-02-17T08:24:16.161Z,7.99
2019-02-17T08:25:21.749Z,8.36
2019-02-17T08:26:18.403Z,8.43
2019-02-17T08:27:16.632Z,8.68
2019-02-17T08:28:16.796Z,8.98
2019-02-17T08:29:16.895Z,9.04
2019-02-17T08:30:17.123Z,8.86
2019-02-17T08:31:17.396Z,8.91
2019-02-17T08:32:17.534Z,8.89
2019-02-17T08:33:17.658Z,9.15
2019-02-17T08:34:17.777Z,9.42
2019-02-17T08:35:17.912Z,9.42
2019-02-17T08:36:18.163Z,9.56
2019-02-17T08:37:18.263Z,9.53
2019-02-17T08:38:18.523Z,9.60
2019-02-17T08:39:18.664Z,9.71
2019-02-17T08:40:18.858Z,9.91
2019-02-17T08:41:18.973Z,9.77
2019-02-17T08:42:19.238Z,9.49
2019-02-17T08:43:19.334Z,9.68
2019-02-17T08:44:19.601Z,9.58
2019-02-17T08:45:19.824Z,9.73
2019-02-17T08:46:19.997Z,9.59
2019-02-17T08:47:20.107Z,9.38
2019-02-17T08:48:20.240Z,9.38
2019-02-17T08:49:20.382Z,9.32
2019-02-17T08:50:20.515Z,9.16
2019-02-17T08:51:21.350Z,9.30
2019-02-17T08:52:20.851Z,9.32
2019-02-17T08:53:21.001Z,8.94
2019-02-17T08:54:21.079Z,9.01
2019-02-17T08:55:21.307Z,9.20
2019-02-17T08:56:21.547Z,9.35
2019-02-17T08:57:21.671Z,9.55
2019-02-17T08:58:21.808Z,9.92
2019-02-17T08:59:23.002Z,9.80
2019-02-17T09:15:35.115Z,10.35
2019-02-17T09:16:35.353Z,10.51
2019-02-17T09:17:35.478Z,10.65
2019-02-17T09:18:35.700Z,10.86
2019-02-17T09:19:35.825Z,10.99
2019-02-17T09:20:36.058Z,11.20
2019-02-17T09:21:36.371Z,11.46
2019-02-17T09:22:36.451Z,11.56
2019-02-17T09:23:36.607Z,11.69
2019-02-17T09:24:36.787Z,11.97
2019-02-17T09:25:36.975Z,12.01
2019-02-17T09:26:37.183Z,12.51
2019-02-17T09:27:37.311Z,12.54
2019-02-17T10:10:29.775Z,21.52
2019-02-17T10:11:39.490Z,21.85
2019-02-17T10:12:30.172Z,22.44
2019-02-17T10:13:30.379Z,22.89
2019-02-17T10:14:30.472Z,22.21
2019-02-17T10:15:30.705Z,21.83
2019-02-17T10:16:30.874Z,22.12
2019-02-17T10:17:31.027Z,22.31
2019-02-17T10:18:31.146Z,22.59
2019-02-17T10:19:31.384Z,23.22
2019-02-17T10:20:31.562Z,22.88
2019-02-17T10:21:32.844Z,22.09
2019-02-17T10:22:33.069Z,22.85
2019-02-17T10:23:33.263Z,22.31
2019-02-17T10:24:33.478Z,21.53
2019-02-17T10:25:33.715Z,21.73
2019-02-17T10:26:33.927Z,21.70
2019-02-17T10:27:35.133Z,21.81
2019-02-17T10:28:42.170Z,21.43
2019-02-17T10:29:36.464Z,21.96
2019-02-17T10:30:34.632Z,22.29
2019-02-17T10:31:34.852Z,22.24
2019-02-17T10:32:38.999Z,22.29
2019-02-17T10:33:36.294Z,21.99
2019-02-17T10:34:35.970Z,20.82
2019-02-17T10:35:35.751Z,20.90
2019-02-17T10:36:35.885Z,21.33
2019-02-17T10:37:35.982Z,21.43
2019-02-17T10:38:36.215Z,21.11
2019-02-17T10:39:37.184Z,20.75
2019-02-17T10:40:36.765Z,20.56
2019-02-17T10:41:36.778Z,21.06
2019-02-17T10:42:37.419Z,20.94
2019-02-17T10:43:37.005Z,21.68
2019-02-17T10:44:37.265Z,22.74
2019-02-17T10:45:37.569Z,22.97
2019-02-17T10:46:37.555Z,22.19
2019-02-17T10:47:37.830Z,22.44
2019-02-17T10:48:38.043Z,22.91
2019-02-17T10:49:38.075Z,23.16
2019-02-17T10:50:38.353Z,23.54
2019-02-17T10:51:38.436Z,23.92
2019-02-17T10:52:40.145Z,22.93
2019-02-17T10:53:39.258Z,21.16
2019-02-17T10:54:39.594Z,21.45
2019-02-17T10:55:39.317Z,21.27
2019-02-17T10:56:39.459Z,21.89
2019-02-17T10:57:39.646Z,22.09
2019-02-17T10:58:40.742Z,22.76
2019-02-17T10:59:42.187Z,22.99
2019-02-17T11:30:33.890Z,25.12
2019-02-17T11:31:35.698Z,25.22
2019-02-17T11:32:36.216Z,25.44
2019-02-17T11:33:35.404Z,25.82
2019-02-17T11:34:35.617Z,26.00
2019-02-17T11:35:35.872Z,26.03
2019-02-17T11:36:35.997Z,26.08
2019-02-17T11:37:36.219Z,26.38
2019-02-17T11:38:36.425Z,26.75
2019-02-17T11:39:36.692Z,26.39
2019-02-17T11:40:36.839Z,26.03
2019-02-17T11:41:36.950Z,26.31
2019-02-17T11:42:38.288Z,26.53
2019-02-17T11:43:37.432Z,26.51
2019-02-17T11:44:37.584Z,26.59
2019-02-17T11:45:37.726Z,26.72
2019-02-17T11:46:37.850Z,26.61
2019-02-17T11:47:38.077Z,26.47
2019-02-17T11:48:38.340Z,26.53
2019-02-17T11:49:38.546Z,26.56
2019-02-17T11:50:38.687Z,26.65
2019-02-17T11:51:38.804Z,26.24
2019-02-17T11:52:39.093Z,26.46
2019-02-17T11:53:39.315Z,26.83
2019-02-17T11:54:40.268Z,26.44
2019-02-17T11:55:39.670Z,26.27
2019-02-17T11:56:39.836Z,26.31
2019-02-17T11:57:39.930Z,26.71
2019-02-17T11:58:40.160Z,27.05
2019-02-17T11:59:40.588Z,27.24
2019-02-17T12:00:40.540Z,27.40
2019-02-17T12:01:40.851Z,27.21
2019-02-17T12:02:41.026Z,27.24
2019-02-17T12:03:41.121Z,27.46
2019-02-17T12:04:41.454Z,27.38
2019-02-17T12:05:41.654Z,27.61
2019-02-17T12:06:41.862Z,27.80
2019-02-17T12:07:42.043Z,28.23
2019-02-17T12:08:42.299Z,28.51
2019-02-17T12:09:42.472Z,28.38
2019-02-17T12:10:42.665Z,28.36
2019-02-17T12:11:42.985Z,28.48
2019-02-17T12:12:43.215Z,28.73
2019-02-17T12:13:43.562Z,28.89
2019-02-17T12:14:43.293Z,28.35
2019-02-17T12:15:44.176Z,28.03
2019-02-17T12:16:43.635Z,27.87
2019-02-17T12:17:43.997Z,27.62
2019-02-17T12:18:44.125Z,27.61
2019-02-17T12:19:44.448Z,27.28
2019-02-17T12:20:44.445Z,27.01
2019-02-17T12:21:44.548Z,25.34
2019-02-17T12:22:44.917Z,25.46
2019-02-17T12:23:45.007Z,25.31
2019-02-17T12:24:45.106Z,25.39
2019-02-17T12:25:45.385Z,24.79
2019-02-17T12:26:45.552Z,24.27
2019-02-17T12:27:45.690Z,24.45
2019-02-17T12:28:45.949Z,24.33
2019-02-17T12:29:46.060Z,24.19
2019-02-17T12:30:46.180Z,24.71
2019-02-17T12:31:46.426Z,24.59
2019-02-17T12:32:46.566Z,23.93
2019-02-17T12:33:46.801Z,24.14
2019-02-17T12:34:47.074Z,23.22
2019-02-17T12:35:47.207Z,23.37
2019-02-17T12:36:47.341Z,23.22
2019-02-17T12:37:47.584Z,22.70
2019-02-17T12:38:47.688Z,22.51
2019-02-17T12:39:47.809Z,22.19
2019-02-17T12:40:48.059Z,22.57
2019-02-17T12:41:48.133Z,23.44
2019-02-17T12:42:48.358Z,23.92
2019-02-17T12:43:48.558Z,23.97
2019-02-17T12:44:48.774Z,23.75
2019-02-17T12:45:49.021Z,23.18
2019-02-17T13:06:23.815Z,23.89
2019-02-17T13:07:25.985Z,23.99
2019-02-17T13:08:33.576Z,24.45
2019-02-17T13:09:25.015Z,24.80
2019-02-17T13:10:26.452Z,25.04
2019-02-17T13:11:25.948Z,25.38
2019-02-17T13:12:25.399Z,25.31
2019-02-17T13:13:26.903Z,24.45
2019-02-17T13:14:27.325Z,23.96
2019-02-17T13:15:25.814Z,23.62
2019-02-17T13:16:25.931Z,22.85
2019-02-17T13:17:26.296Z,22.81
2019-02-17T13:18:26.450Z,23.16
2019-02-17T13:19:26.763Z,23.64
2019-02-17T13:20:27.505Z,23.90
2019-02-17T13:21:28.776Z,23.71
2019-02-17T13:22:27.447Z,22.89
2019-02-17T13:23:27.388Z,22.39
2019-02-17T13:24:27.933Z,22.60
2019-02-17T13:25:27.907Z,23.07
2019-02-17T13:26:27.891Z,23.26
2019-02-17T13:27:27.944Z,23.07
2019-02-17T13:28:28.498Z,22.72
2019-02-17T13:29:28.592Z,22.88
2019-02-17T13:30:28.520Z,23.59
2019-02-17T13:31:29.215Z,23.49
2019-02-17T13:32:29.536Z,22.76
2019-02-17T13:33:38.496Z,22.69
2019-02-17T13:34:30.330Z,22.66
2019-02-17T13:35:30.026Z,22.97
2019-02-17T13:36:32.358Z,23.29
2019-02-17T13:37:30.363Z,22.61
2019-02-17T13:38:31.231Z,22.70
2019-02-17T13:39:30.772Z,23.00
2019-02-17T13:40:30.431Z,23.25
2019-02-17T13:41:30.547Z,23.34
2019-02-17T13:42:30.735Z,23.34
2019-02-17T13:43:32.202Z,22.01
2019-02-17T13:44:31.793Z,21.26
2019-02-17T13:45:32.643Z,20.57
2019-02-17T13:46:32.424Z,21.00
2019-02-17T13:47:32.195Z,20.69
2019-02-17T13:48:32.420Z,20.44
2019-02-17T13:49:32.578Z,20.96
2019-02-17T13:50:32.705Z,21.43
2019-02-17T13:51:32.423Z,22.01
2019-02-17T13:52:33.466Z,22.38
2019-02-17T13:53:34.927Z,22.66
2019-02-17T13:54:34.140Z,22.78
2019-02-17T13:55:33.331Z,22.66
2019-02-17T13:56:33.316Z,22.21
2019-02-17T13:57:34.154Z,21.22
2019-02-17T13:58:34.755Z,21.28
2019-02-17T13:59:33.741Z,21.51
2019-02-17T14:00:33.797Z,21.68
2019-02-17T14:01:34.171Z,21.86
2019-02-17T14:02:34.255Z,21.24
2019-02-17T14:03:34.267Z,21.12
2019-02-17T14:15:17.387Z,19.70
2019-02-17T14:17:03.468Z,20.34
2019-02-17T14:18:03.663Z,20.85
2019-02-17T14:19:03.861Z,20.68
2019-02-17T14:20:04.062Z,19.85
2019-02-17T14:21:04.247Z,19.70
2019-02-17T14:22:04.439Z,20.16
2019-02-17T14:23:04.632Z,20.41
2019-02-17T14:28:43.216Z,20.48
2019-02-17T14:29:42.519Z,20.78
2019-02-17T14:30:41.693Z,20.94
2019-02-17T14:31:42.018Z,21.33
2019-02-17T14:32:41.405Z,21.74
2019-02-17T14:46:17.117Z,20.30
2019-02-17T14:47:17.427Z,19.79
2019-02-17T14:48:17.521Z,19.85
2019-02-17T14:50:43.359Z,20.02
2019-02-17T14:51:31.252Z,19.53
2019-02-17T14:52:31.525Z,19.64
2019-02-17T14:53:31.637Z,20.05
2019-02-17T14:55:09.195Z,19.90
2019-02-17T14:55:32.014Z,19.98
2019-02-17T14:56:32.216Z,20.30
2019-02-17T14:57:32.471Z,20.23
2019-02-17T14:58:32.686Z,20.50
2019-02-17T14:59:32.893Z,20.00
2019-02-17T15:00:33.100Z,19.47
2019-02-17T15:01:33.365Z,19.52
2019-02-17T15:02:33.482Z,20.01
2019-02-17T15:03:33.591Z,20.25
2019-02-17T15:04:33.802Z,20.20
2019-02-17T15:05:34.022Z,20.30
2019-02-17T15:06:34.253Z,20.17
2019-02-17T15:07:34.632Z,19.71
2019-02-17T15:08:34.601Z,19.85
2019-02-17T15:09:34.721Z,19.97
2019-02-17T15:10:34.858Z,19.79
2019-02-17T15:11:35.025Z,20.20
2019-02-17T15:12:36.444Z,20.13
2019-02-17T15:13:36.510Z,19.80
2019-02-17T15:14:36.682Z,19.34
2019-02-17T15:15:36.868Z,18.93
2019-02-17T15:16:37.065Z,18.51
2019-02-17T15:17:37.318Z,17.89
2019-02-17T15:18:37.497Z,17.89
2019-02-17T15:19:37.636Z,17.80
2019-02-17T15:20:37.800Z,17.57
2019-02-17T15:21:37.920Z,17.60
2019-02-17T15:22:38.196Z,17.68
2019-02-17T15:23:38.347Z,17.70
2019-02-17T15:24:38.484Z,17.60
2019-02-17T15:25:38.608Z,17.42
2019-02-17T15:26:38.814Z,17.30
2019-02-17T15:27:39.009Z,17.33
2019-02-17T15:28:39.140Z,17.32
2019-02-17T15:29:39.258Z,17.27
2019-02-17T15:30:39.460Z,17.25
2019-02-17T15:31:39.670Z,17.33
2019-02-17T15:32:40.084Z,17.28
2019-02-17T15:33:40.001Z,17.46
2019-02-17T15:34:40.214Z,17.63
2019-02-17T15:35:40.343Z,17.65
2019-02-17T15:36:40.543Z,17.42
2019-02-17T15:37:40.724Z,17.30
2019-02-17T15:38:40.923Z,17.24
2019-02-17T15:39:41.135Z,17.70
2019-02-17T15:40:41.309Z,17.68
2019-02-17T15:41:41.498Z,17.92
2019-02-17T15:42:43.179Z,17.79
2019-02-17T15:43:42.910Z,17.73
2019-02-17T15:44:42.057Z,17.38
2019-02-17T15:45:42.249Z,17.28
2019-02-17T15:46:42.399Z,17.54
2019-02-17T15:47:42.567Z,17.49
2019-02-17T15:48:42.744Z,17.62
2019-02-17T15:49:42.893Z,17.68
2019-02-17T15:50:43.067Z,17.57
2019-02-17T15:51:43.220Z,17.06
2019-02-17T15:52:43.388Z,17.43
2019-02-17T15:53:43.591Z,17.70
2019-02-17T15:54:43.808Z,17.68
2019-02-17T15:55:44.002Z,17.12
2019-02-17T15:56:44.202Z,16.73
2019-02-17T15:57:44.421Z,16.69
2019-02-17T15:58:45.110Z,16.45
2019-02-17T15:59:45.757Z,16.16
2019-02-17T16:00:44.934Z,16.04
2019-02-17T16:01:45.134Z,15.84
2019-02-17T16:02:45.329Z,15.53
2019-02-17T16:03:45.532Z,15.33
2019-02-17T16:04:45.745Z,15.18
2019-02-17T16:05:45.928Z,14.97
2019-02-17T16:06:46.128Z,14.64
2019-02-17T16:07:46.312Z,14.67
2019-02-17T16:08:46.519Z,14.21
2019-02-17T16:09:46.743Z,14.13
2019-02-17T16:10:47.030Z,14.04
2019-02-17T16:11:47.089Z,13.87
2019-02-17T16:12:47.297Z,13.87
2019-02-17T16:13:47.499Z,13.90
2019-02-17T16:14:48.010Z,13.75
2019-02-17T16:15:48.013Z,13.61
2019-02-17T16:16:48.128Z,13.63
2019-02-17T16:17:48.347Z,13.55
2019-02-17T16:18:48.560Z,13.36
2019-02-17T16:19:48.768Z,13.38
2019-02-17T16:20:48.960Z,13.27
2019-02-17T16:21:49.182Z,13.28
2019-02-17T16:22:49.472Z,13.22
2019-02-17T16:23:49.586Z,13.14
2019-02-17T16:24:49.793Z,13.04
2019-02-17T16:25:50.007Z,13.03
2019-02-17T16:26:50.186Z,12.98
2019-02-17T16:27:50.402Z,12.88
2019-02-17T16:28:50.639Z,12.88
2019-02-17T16:29:50.840Z,12.77
2019-02-17T16:30:51.027Z,12.66
2019-02-17T16:31:51.239Z,12.62
2019-02-17T16:32:52.437Z,12.69
2019-02-17T16:33:51.662Z,12.62
2019-02-17T16:34:51.740Z,12.56
2019-02-17T16:35:52.046Z,12.48
2019-02-17T16:36:52.140Z,12.44
2019-02-17T16:37:52.350Z,12.29
2019-02-17T16:38:52.563Z,12.29
2019-02-17T16:39:52.785Z,12.26
2019-02-17T16:40:52.995Z,12.15
2019-02-17T16:41:53.225Z,12.07
2019-02-17T16:42:53.433Z,12.05
2019-02-17T16:43:53.637Z,11.88
2019-02-17T16:44:53.826Z,11.81
2019-02-17T16:45:54.013Z,11.74
2019-02-17T16:46:54.211Z,11.57
2019-02-17T16:47:54.402Z,11.56
2019-02-17T16:48:54.608Z,11.49
2019-02-17T16:49:54.799Z,11.42
2019-02-17T16:50:55.016Z,11.41
2019-02-17T16:51:55.194Z,11.41
2019-02-17T16:52:55.460Z,11.27
2019-02-17T16:53:55.651Z,11.24
2019-02-17T16:54:55.884Z,11.11
2019-02-17T16:55:56.079Z,10.99
2019-02-17T16:56:56.324Z,10.83
2019-02-17T16:57:56.423Z,10.65
2019-02-17T16:58:56.648Z,10.63
2019-02-17T16:59:56.824Z,10.51
2019-02-17T17:00:57.029Z,10.39
2019-02-17T17:01:57.254Z,10.11
2019-02-17T17:02:57.341Z,10.07
2019-02-17T17:03:57.545Z,10.04
2019-02-17T17:04:57.752Z,9.95
2019-02-17T17:05:57.952Z,9.95
2019-02-17T17:06:58.151Z,9.83
2019-02-17T17:07:58.357Z,9.80
2019-02-17T17:08:58.587Z,9.78
2019-02-17T17:09:58.782Z,9.67
2019-02-17T17:10:59.007Z,9.49
2019-02-17T17:11:59.229Z,9.45
2019-02-17T17:12:59.429Z,9.24
2019-02-17T17:13:59.656Z,9.27
2019-02-17T17:14:59.849Z,9.16
2019-02-17T17:16:00.043Z,9.06
2019-02-17T17:17:00.234Z,8.86
2019-02-17T17:18:00.424Z,8.85
2019-02-17T17:19:00.633Z,8.70
2019-02-17T17:20:00.811Z,8.57
2019-02-17T17:21:01.054Z,8.40
2019-02-17T17:22:01.316Z,8.37
2019-02-17T17:23:01.407Z,8.28
2019-02-17T17:24:01.608Z,8.13
2019-02-17T17:26:50.424Z,7.74
2019-02-17T17:27:50.683Z,7.58
2019-02-17T17:28:50.821Z,7.50
2019-02-17T17:29:58.580Z,7.39
2019-02-17T17:30:51.070Z,7.47
2019-02-17T17:31:51.257Z,7.36
2019-02-17T17:32:51.461Z,7.18
2019-02-17T17:33:51.641Z,7.14
2019-02-17T17:34:58.595Z,7.07
2019-02-17T17:35:53.059Z,7.01
2019-02-17T17:36:52.241Z,6.93
2019-02-17T17:37:52.434Z,6.91
2019-02-17T17:38:52.713Z,6.73
2019-02-17T17:40:46.990Z,6.64
2019-02-17T17:40:53.130Z,6.64
2019-02-17T17:44:21.319Z,6.38
2019-02-17T17:44:31.611Z,6.30
2019-02-17T17:45:31.720Z,6.32
2019-02-17T17:56:18.933Z,5.55
2019-02-17T17:58:05.774Z,5.45
2019-02-17T17:59:06.069Z,5.42
2019-02-17T18:00:06.146Z,5.24
2019-02-17T18:05:16.515Z,5.02
2019-02-17T18:05:53.761Z,4.96
2019-02-17T18:06:53.731Z,4.83
2019-02-17T18:08:02.500Z,4.83
2019-02-17T18:08:54.046Z,4.68
2019-02-17T18:09:54.265Z,4.84
2019-02-17T18:10:54.464Z,4.71
2019-02-17T18:11:54.670Z,4.71
2019-02-17T18:12:54.890Z,4.59
2019-02-17T18:13:55.115Z,4.50
2019-02-17T18:14:55.382Z,4.46
2019-02-17T18:15:55.458Z,4.46
2019-02-17T18:16:55.675Z,4.46
2019-02-17T18:17:55.882Z,4.42
2019-02-17T18:18:56.063Z,4.31
2019-02-17T18:19:56.272Z,4.25
2019-02-17T18:20:56.471Z,4.29
2019-02-17T18:21:56.593Z,4.21
2019-02-17T18:22:56.749Z,4.13
2019-02-17T18:23:56.917Z,4.11
2019-02-17T18:24:57.104Z,4.06
2019-02-17T18:25:57.282Z,4.10
2019-02-17T18:26:57.446Z,3.92
2019-02-17T18:27:57.587Z,3.92
2019-02-17T18:28:57.742Z,3.78
2019-02-17T18:29:57.932Z,3.82
2019-02-17T18:30:58.074Z,3.81
2019-02-17T18:31:58.213Z,3.81
2019-02-17T18:32:58.478Z,3.92
2019-02-17T18:33:58.566Z,3.71
